createdAt,value
2018-10-09T00:00:38.299Z,49.73
2018-10-09T00:03:06.436Z,54.80
2018-10-09T00:05:34.609Z,48.23
2018-10-09T00:08:02.997Z,48.97
2018-10-09T00:10:31.555Z,49.70
2018-10-09T00:12:59.647Z,52.57
2018-10-09T00:15:27.825Z,51.33
2018-10-09T00:17:56.096Z,49.23
2018-10-09T00:20:25.144Z,41.87
2018-10-09T00:22:55.401Z,47.63
2018-10-09T00:25:23.858Z,53.37
2018-10-09T00:27:52.331Z,50.17
2018-10-09T00:30:20.519Z,57.37
2018-10-09T00:32:48.836Z,55.63
2018-10-09T00:35:17.056Z,41.67
2018-10-09T00:37:45.542Z,60.63
2018-10-09T00:40:13.833Z,46.67
2018-10-09T00:42:42.047Z,46.03
2018-10-09T00:45:10.303Z,41.17
2018-10-09T00:47:38.428Z,46.63
2018-10-09T00:50:06.799Z,44.37
2018-10-09T00:52:34.927Z,46.53
2018-10-09T00:55:03.086Z,54.97
2018-10-09T00:57:31.359Z,50.70
2018-10-09T00:59:59.474Z,55.33
2018-10-09T01:02:27.844Z,47.27
2018-10-09T01:04:56.016Z,42.93
2018-10-09T01:07:24.427Z,44.00
2018-10-09T01:09:52.635Z,37.60
2018-10-09T01:12:20.739Z,55.57
2018-10-09T01:14:48.949Z,55.37
2018-10-09T01:17:17.108Z,48.83
2018-10-09T01:19:45.258Z,42.97
2018-10-09T01:22:13.428Z,37.17
2018-10-09T01:24:41.700Z,51.70
2018-10-09T01:27:10.060Z,38.60
2018-10-09T01:29:38.276Z,39.90
2018-10-09T01:32:06.522Z,42.53
2018-10-09T01:34:34.675Z,48.47
2018-10-09T01:37:02.839Z,45.50
2018-10-09T01:39:30.934Z,48.23
2018-10-09T01:41:59.099Z,43.10
2018-10-09T01:44:30.604Z,39.20
2018-10-09T01:46:58.781Z,39.87
2018-10-09T01:49:26.914Z,37.40
2018-10-09T01:51:54.998Z,35.63
2018-10-09T01:54:23.182Z,42.50
2018-10-09T01:56:51.354Z,47.43
2018-10-09T01:59:19.409Z,39.57
2018-10-09T02:01:47.462Z,44.30
2018-10-09T02:04:15.550Z,48.87
2018-10-09T02:06:43.666Z,49.70
2018-10-09T02:09:11.849Z,56.63
2018-10-09T02:11:40.007Z,55.67
2018-10-09T02:14:08.188Z,51.77
2018-10-09T02:16:36.369Z,52.67
2018-10-09T02:19:04.511Z,49.17
2018-10-09T02:21:32.583Z,52.03
2018-10-09T02:24:00.652Z,47.23
2018-10-09T02:26:28.780Z,51.03
2018-10-09T02:28:56.905Z,58.90
2018-10-09T02:31:25.139Z,63.80
2018-10-09T02:33:53.351Z,51.97
2018-10-09T02:36:21.546Z,56.40
2018-10-09T02:38:49.759Z,53.80
2018-10-09T02:41:17.965Z,58.10
2018-10-09T02:43:46.023Z,63.37
2018-10-09T02:46:14.367Z,59.97
2018-10-09T02:48:42.567Z,62.17
2018-10-09T02:51:10.688Z,54.67
2018-10-09T02:53:38.885Z,70.13
2018-10-09T02:56:07.082Z,57.07
2018-10-09T02:58:35.309Z,67.77
2018-10-09T03:01:03.599Z,62.47
2018-10-09T03:03:31.758Z,53.13
2018-10-09T03:05:59.902Z,56.50
2018-10-09T03:08:28.124Z,61.03
2018-10-09T03:10:56.378Z,61.73
2018-10-09T03:13:24.624Z,60.27
2018-10-09T03:15:52.702Z,67.03
2018-10-09T03:18:20.779Z,43.93
2018-10-09T03:20:48.889Z,58.53
2018-10-09T03:23:17.072Z,66.37
2018-10-09T03:25:45.248Z,65.60
2018-10-09T03:28:13.378Z,58.03
2018-10-09T03:30:41.503Z,54.23
2018-10-09T03:33:09.628Z,56.80
2018-10-09T03:35:37.744Z,71.40
2018-10-09T03:38:06.008Z,58.10
2018-10-09T03:40:34.181Z,60.90
2018-10-09T03:43:02.356Z,71.87
2018-10-09T03:45:30.533Z,55.60
2018-10-09T03:47:58.669Z,85.93
2018-10-09T03:50:26.787Z,60.43
2018-10-09T03:52:54.906Z,65.07
2018-10-09T03:55:23.069Z,72.17
2018-10-09T03:57:51.272Z,62.43
2018-10-09T04:00:19.506Z,66.23
2018-10-09T04:02:47.668Z,55.80
2018-10-09T04:05:15.848Z,54.33
2018-10-09T04:07:43.967Z,53.03
2018-10-09T04:10:12.079Z,63.87
2018-10-09T04:12:40.343Z,51.90
2018-10-09T04:15:08.543Z,59.97
2018-10-09T04:17:36.892Z,59.47
2018-10-09T04:20:05.467Z,50.17
2018-10-09T04:22:33.791Z,47.00
2018-10-09T04:25:01.947Z,63.00
2018-10-09T04:27:30.111Z,53.03
2018-10-09T04:29:59.159Z,52.83
2018-10-09T04:32:27.294Z,53.10
2018-10-09T04:34:55.464Z,49.17
2018-10-09T04:37:23.831Z,68.27
2018-10-09T04:39:52.125Z,51.00
2018-10-09T04:42:20.761Z,55.10
2018-10-09T04:44:48.838Z,47.53
2018-10-09T04:47:16.920Z,54.57
2018-10-09T04:49:45.217Z,60.40
2018-10-09T04:52:13.493Z,54.60
2018-10-09T04:54:41.683Z,68.03
2018-10-09T04:57:09.867Z,55.67
2018-10-09T04:59:38.078Z,65.53
2018-10-09T05:02:06.214Z,96.23
2018-10-09T05:04:34.291Z,60.50
2018-10-09T05:07:02.398Z,60.00
2018-10-09T05:09:30.529Z,68.07
2018-10-09T05:11:58.696Z,58.87
2018-10-09T05:14:26.882Z,60.37
2018-10-09T05:16:55.033Z,60.37
2018-10-09T05:19:23.172Z,62.30
2018-10-09T05:21:51.303Z,71.23
2018-10-09T05:24:19.443Z,72.53
2018-10-09T05:26:47.660Z,66.77
2018-10-09T05:29:15.813Z,79.43
2018-10-09T05:31:44.061Z,61.50
2018-10-09T05:34:12.151Z,54.40
2018-10-09T05:36:40.315Z,81.93
2018-10-09T05:39:08.900Z,67.63
2018-10-09T05:41:37.459Z,58.10
2018-10-09T05:44:05.997Z,61.53
2018-10-09T05:46:34.168Z,61.70
2018-10-09T05:49:02.351Z,74.23
2018-10-09T05:51:30.548Z,72.80
2018-10-09T05:53:58.746Z,63.77
2018-10-09T05:56:26.859Z,68.33
2018-10-09T05:58:54.918Z,66.60
2018-10-09T06:01:23.376Z,70.03
2018-10-09T06:03:51.844Z,73.20
2018-10-09T06:06:20.051Z,66.20
2018-10-09T06:08:48.267Z,70.73
2018-10-09T06:11:16.472Z,78.43
2018-10-09T06:13:44.849Z,60.93
2018-10-09T06:16:13.042Z,68.67
2018-10-09T06:18:41.231Z,64.43
2018-10-09T06:21:09.471Z,62.57
2018-10-09T06:23:37.812Z,65.40
2018-10-09T06:26:05.980Z,60.13
2018-10-09T06:28:34.198Z,63.60
2018-10-09T06:31:02.330Z,66.63
2018-10-09T06:33:30.441Z,61.17
2018-10-09T06:35:58.909Z,58.53
2018-10-09T06:38:27.088Z,74.23
2018-10-09T06:40:55.257Z,64.07
2018-10-09T06:43:23.463Z,66.37
2018-10-09T06:45:51.623Z,58.87
2018-10-09T06:48:19.784Z,63.90
2018-10-09T06:50:47.993Z,54.50
2018-10-09T06:53:16.162Z,75.20
2018-10-09T06:55:44.380Z,69.47
2018-10-09T06:58:12.500Z,67.97
2018-10-09T07:00:40.683Z,72.17
2018-10-09T07:03:08.874Z,58.50
2018-10-09T07:05:37.030Z,59.23
2018-10-09T07:08:05.249Z,65.43
2018-10-09T07:10:33.363Z,77.63
2018-10-09T07:13:01.576Z,66.50
2018-10-09T07:15:29.731Z,54.73
2018-10-09T07:17:57.961Z,57.97
2018-10-09T07:20:26.193Z,67.50
2018-10-09T07:22:54.347Z,61.43
2018-10-09T07:25:22.540Z,59.57
2018-10-09T07:27:50.746Z,54.70
2018-10-09T07:30:18.858Z,58.70
2018-10-09T07:32:47.051Z,69.87
2018-10-09T07:35:15.241Z,64.77
2018-10-09T07:37:43.513Z,66.13
2018-10-09T07:40:11.334Z,68.63
2018-10-09T07:42:39.550Z,65.10
2018-10-09T07:45:07.753Z,59.47
2018-10-09T07:47:35.873Z,71.63
2018-10-09T07:50:04.360Z,71.50
2018-10-09T07:52:32.542Z,57.37
2018-10-09T07:55:00.740Z,63.70
2018-10-09T07:57:28.912Z,53.10
2018-10-09T07:59:57.055Z,67.40
2018-10-09T08:02:25.257Z,61.77
2018-10-09T08:04:53.512Z,64.23
2018-10-09T08:07:21.606Z,60.20
2018-10-09T08:09:49.760Z,60.43
2018-10-09T08:12:17.961Z,60.53
2018-10-09T08:14:46.182Z,63.57
2018-10-09T08:17:14.403Z,75.60
2018-10-09T08:19:42.564Z,60.23
2018-10-09T08:22:10.820Z,56.63
2018-10-09T08:24:38.993Z,56.83
2018-10-09T08:27:07.232Z,63.17
2018-10-09T08:29:35.513Z,59.67
2018-10-09T08:32:03.644Z,49.47
2018-10-09T08:34:31.867Z,54.53
2018-10-09T08:36:59.973Z,57.33
2018-10-09T08:39:28.184Z,59.37
2018-10-09T08:41:56.329Z,65.03
2018-10-09T08:44:24.505Z,61.30
2018-10-09T08:46:52.692Z,56.53
2018-10-09T08:49:20.865Z,58.77
2018-10-09T08:51:49.100Z,76.33
2018-10-09T08:54:17.216Z,65.73
2018-10-09T08:56:45.395Z,62.87
2018-10-09T08:59:13.590Z,56.33
2018-10-09T09:01:41.774Z,56.47
2018-10-09T09:04:09.926Z,59.73
2018-10-09T09:06:38.104Z,59.33
2018-10-09T09:09:08.703Z,57.17
2018-10-09T09:11:37.085Z,55.63
2018-10-09T09:14:05.296Z,64.83
2018-10-09T09:16:33.685Z,57.97
2018-10-09T09:19:01.911Z,60.17
2018-10-09T09:21:30.704Z,60.73
2018-10-09T09:23:58.899Z,54.23
2018-10-09T09:26:27.190Z,52.77
2018-10-09T09:28:55.322Z,49.80
2018-10-09T09:31:23.509Z,47.33
2018-10-09T09:33:51.682Z,51.73
2018-10-09T09:36:19.958Z,51.77
2018-10-09T09:38:48.128Z,50.77
2018-10-09T09:41:16.361Z,52.93
2018-10-09T09:43:44.512Z,52.87
2018-10-09T09:46:12.716Z,55.73
2018-10-09T09:48:40.894Z,48.77
2018-10-09T09:51:09.001Z,49.37
2018-10-09T09:53:37.204Z,46.83
2018-10-09T09:56:05.381Z,44.80
2018-10-09T09:58:33.696Z,56.53
2018-10-09T10:01:07.665Z,52.77
2018-10-09T10:03:36.585Z,58.57
2018-10-09T10:06:04.921Z,49.10
2018-10-09T10:08:33.114Z,51.10
2018-10-09T10:11:01.269Z,50.60
2018-10-09T10:13:29.443Z,59.07
2018-10-09T10:15:57.666Z,51.00
2018-10-09T10:18:25.877Z,54.20
2018-10-09T10:20:54.075Z,52.23
2018-10-09T10:23:22.220Z,45.20
2018-10-09T10:25:50.412Z,50.93
2018-10-09T10:28:18.615Z,45.10
2018-10-09T10:30:47.075Z,46.90
2018-10-09T10:33:15.433Z,42.43
2018-10-09T10:35:43.700Z,45.50
2018-10-09T10:38:11.860Z,48.20
2018-10-09T10:40:40.017Z,57.03
2018-10-09T10:43:08.188Z,53.83
2018-10-09T10:45:36.356Z,48.27
2018-10-09T10:48:04.501Z,43.97
2018-10-09T10:50:32.700Z,55.83
2018-10-09T10:53:00.888Z,48.77
2018-10-09T10:55:29.046Z,48.27
2018-10-09T10:57:57.218Z,51.67
2018-10-09T11:00:25.373Z,42.53
2018-10-09T11:02:53.526Z,50.70
2018-10-09T11:05:21.760Z,48.33
2018-10-09T11:07:50.619Z,43.43
2018-10-09T11:10:18.810Z,45.93
2018-10-09T11:12:47.060Z,41.97
2018-10-09T11:15:15.258Z,45.77
2018-10-09T11:17:43.526Z,46.13
2018-10-09T11:20:11.749Z,44.03
2018-10-09T11:22:39.979Z,38.23
2018-10-09T11:25:08.207Z,40.00
2018-10-09T11:27:36.469Z,42.20
2018-10-09T11:30:04.708Z,48.63
2018-10-09T11:32:32.949Z,42.00
2018-10-09T11:35:01.127Z,39.00
2018-10-09T11:37:29.353Z,41.97
2018-10-09T11:39:57.538Z,45.93
2018-10-09T11:42:25.726Z,42.70
2018-10-09T11:44:53.896Z,48.73
2018-10-09T11:47:22.058Z,52.73
2018-10-09T11:49:50.218Z,39.87
2018-10-09T11:52:18.467Z,41.73
2018-10-09T11:54:46.621Z,40.03
2018-10-09T11:57:14.825Z,37.70
2018-10-09T11:59:43.014Z,39.13
2018-10-09T12:02:11.165Z,38.17
2018-10-09T12:04:39.341Z,37.43
2018-10-09T12:07:07.423Z,35.37
2018-10-09T12:09:35.621Z,42.83
2018-10-09T12:12:03.827Z,37.47
2018-10-09T12:14:32.052Z,41.07
2018-10-09T12:17:00.299Z,36.27
2018-10-09T12:19:28.388Z,38.07
2018-10-09T12:21:56.770Z,38.20
2018-10-09T12:24:24.993Z,36.70
2018-10-09T12:26:53.173Z,34.87
2018-10-09T12:29:21.375Z,35.40
2018-10-09T12:31:49.692Z,40.70
2018-10-09T12:34:17.944Z,42.30
2018-10-09T12:36:46.048Z,35.17
2018-10-09T12:39:14.549Z,38.63
2018-10-09T12:41:42.807Z,44.63
2018-10-09T12:44:11.110Z,36.20
2018-10-09T12:46:39.868Z,38.10
2018-10-09T12:49:08.479Z,40.10
2018-10-09T12:51:36.753Z,40.70
2018-10-09T12:54:05.015Z,36.90
2018-10-09T12:56:33.602Z,36.10
2018-10-09T12:59:01.842Z,34.37
2018-10-09T13:01:29.940Z,40.33
2018-10-09T13:03:58.597Z,37.40
2018-10-09T13:06:26.853Z,35.20
2018-10-09T13:08:55.157Z,38.07
2018-10-09T13:11:23.477Z,36.53
2018-10-09T13:13:53.564Z,35.70
2018-10-09T13:16:21.756Z,37.73
2018-10-09T13:18:49.983Z,43.03
2018-10-09T13:21:18.250Z,37.07
2018-10-09T13:23:46.240Z,56.53
2018-10-09T13:26:14.913Z,35.03
2018-10-09T13:28:43.140Z,40.33
2018-10-09T13:31:11.357Z,34.20
2018-10-09T13:33:39.503Z,36.17
2018-10-09T13:36:08.014Z,34.03
2018-10-09T13:38:36.231Z,32.73
2018-10-09T13:41:04.525Z,36.23
2018-10-09T13:43:32.781Z,35.80
2018-10-09T13:46:01.004Z,32.90
2018-10-09T13:48:29.419Z,35.07
2018-10-09T13:50:57.747Z,43.17
2018-10-09T13:53:25.964Z,50.90
2018-10-09T13:55:54.278Z,38.80
2018-10-09T13:58:23.689Z,33.83
2018-10-09T14:00:51.860Z,33.17
2018-10-09T14:03:20.153Z,33.73
2018-10-09T14:05:48.271Z,32.53
2018-10-09T14:08:16.464Z,33.87
2018-10-09T14:10:44.661Z,34.30
2018-10-09T14:13:12.833Z,40.50
2018-10-09T14:15:41.121Z,35.73
2018-10-09T14:18:09.312Z,34.87
2018-10-09T14:20:37.492Z,34.23
2018-10-09T14:23:06.062Z,32.23
2018-10-09T14:25:34.225Z,33.00
2018-10-09T14:28:02.418Z,38.90
2018-10-09T14:30:30.556Z,32.70
2018-10-09T14:32:58.856Z,33.30
2018-10-09T14:35:27.031Z,31.97
2018-10-09T14:37:55.262Z,33.40
2018-10-09T14:40:23.395Z,31.00
2018-10-09T14:42:51.616Z,31.40
2018-10-09T14:45:19.835Z,33.53
2018-10-09T14:47:48.048Z,33.67
2018-10-09T14:50:16.148Z,33.07
2018-10-09T14:52:44.228Z,32.40
2018-10-09T14:55:12.434Z,29.73
2018-10-09T15:00:36.627Z,31.73
2018-10-09T15:03:04.804Z,36.10
2018-10-09T15:05:32.981Z,34.13
2018-10-09T15:08:01.370Z,33.43
2018-10-09T15:10:29.957Z,34.37
2018-10-09T15:12:58.107Z,32.60
2018-10-09T15:15:26.320Z,40.87
2018-10-09T15:17:54.476Z,32.53
2018-10-09T15:20:22.668Z,32.67
2018-10-09T15:22:50.795Z,36.87
2018-10-09T15:25:18.957Z,32.20
2018-10-09T15:27:47.160Z,32.60
2018-10-09T15:30:16.887Z,35.33
2018-10-09T15:39:45.459Z,42.37
2018-10-09T15:42:13.624Z,38.53
2018-10-09T15:44:42.039Z,36.37
2018-10-09T15:47:10.277Z,35.20
2018-10-09T15:49:38.477Z,35.10
2018-10-09T15:52:06.735Z,33.40
2018-10-09T15:54:34.898Z,32.70
2018-10-09T15:57:03.097Z,34.77
2018-10-09T15:59:31.537Z,34.07
2018-10-09T16:01:59.789Z,32.90
2018-10-09T16:04:27.973Z,40.57
2018-10-09T16:06:56.132Z,39.47
2018-10-09T16:09:24.283Z,37.57
2018-10-09T16:11:52.492Z,43.10
2018-10-09T16:14:20.673Z,36.10
2018-10-09T16:16:48.975Z,36.07
2018-10-09T16:19:17.088Z,35.67
2018-10-09T16:21:45.302Z,36.90
2018-10-09T16:24:15.253Z,38.50
2018-10-09T16:26:43.424Z,37.47
2018-10-09T16:29:12.540Z,34.73
2018-10-09T16:31:40.922Z,38.57
2018-10-09T16:34:09.160Z,34.17
2018-10-09T16:36:37.330Z,38.73
2018-10-09T16:39:08.185Z,38.50
2018-10-09T16:41:36.453Z,40.43
2018-10-09T16:44:04.552Z,43.30
2018-10-09T16:46:32.862Z,38.50
2018-10-09T16:49:01.378Z,37.63
2018-10-09T16:51:29.928Z,51.10
2018-10-09T16:53:58.174Z,38.67
2018-10-09T16:56:26.477Z,35.67
2018-10-09T16:58:54.831Z,35.43
2018-10-09T17:01:23.092Z,39.73
2018-10-09T17:03:52.294Z,39.90
2018-10-09T17:06:20.488Z,45.93
2018-10-09T17:08:48.753Z,38.73
2018-10-09T17:11:17.069Z,76.57
2018-10-09T17:13:45.256Z,37.40
2018-10-09T17:16:13.695Z,37.53
2018-10-09T17:18:42.239Z,42.60
2018-10-09T17:21:10.939Z,40.00
2018-10-09T17:23:39.252Z,41.57
2018-10-09T17:26:07.822Z,40.60
2018-10-09T17:28:37.129Z,36.80
2018-10-09T17:31:05.356Z,41.80
2018-10-09T17:33:33.643Z,37.33
2018-10-09T17:36:01.872Z,36.57
2018-10-09T17:38:30.083Z,44.93
2018-10-09T17:40:58.235Z,51.50
2018-10-09T17:43:26.390Z,58.73
2018-10-09T17:45:54.671Z,45.27
2018-10-09T17:48:22.910Z,46.87
2018-10-09T17:50:51.080Z,46.43
2018-10-09T17:53:20.195Z,45.17
2018-10-09T17:55:48.394Z,49.07
2018-10-09T17:58:16.558Z,48.87
2018-10-09T18:00:44.792Z,45.00
2018-10-09T18:03:13.462Z,45.07
2018-10-09T18:05:41.644Z,48.20
2018-10-09T18:08:09.903Z,42.37
2018-10-09T18:10:38.779Z,42.00
2018-10-09T18:13:07.030Z,51.13
2018-10-09T18:15:35.297Z,41.63
2018-10-09T18:18:03.421Z,42.50
2018-10-09T18:20:31.622Z,40.23
2018-10-09T18:22:59.810Z,42.57
2018-10-09T18:25:28.011Z,50.87
2018-10-09T18:27:56.209Z,45.37
2018-10-09T18:30:24.637Z,44.43
2018-10-09T18:32:53.049Z,50.23
2018-10-09T18:35:20.949Z,47.40
2018-10-09T18:37:49.121Z,46.57
2018-10-09T18:40:17.274Z,54.40
2018-10-09T18:42:45.549Z,62.87
2018-10-09T18:45:13.833Z,48.60
2018-10-09T18:47:43.166Z,52.03
2018-10-09T18:50:11.897Z,45.33
2018-10-09T18:52:40.597Z,49.00
2018-10-09T18:55:10.525Z,49.07
2018-10-09T18:57:38.720Z,46.20
2018-10-09T19:00:07.982Z,50.77
2018-10-09T19:02:36.183Z,51.07
2018-10-09T19:05:04.558Z,42.43
2018-10-09T19:07:33.052Z,40.47
2018-10-09T19:10:01.229Z,49.23
2018-10-09T19:12:29.405Z,53.37
2018-10-09T19:14:57.648Z,55.07
2018-10-09T19:17:25.883Z,45.80
2018-10-09T19:19:54.003Z,53.87
2018-10-09T19:22:22.360Z,44.63
2018-10-09T19:24:50.508Z,50.07
2018-10-09T19:27:18.666Z,57.67
2018-10-09T19:29:46.853Z,50.23
2018-10-09T19:32:15.001Z,55.03
2018-10-09T19:34:43.160Z,42.10
2018-10-09T19:37:11.340Z,46.77
2018-10-09T19:39:39.534Z,51.10
2018-10-09T19:42:07.937Z,52.60
2018-10-09T19:44:37.118Z,45.13
2018-10-09T19:47:05.273Z,41.87
2018-10-09T19:49:33.558Z,40.70
2018-10-09T19:52:01.801Z,37.10
2018-10-09T19:54:29.904Z,48.73
2018-10-09T19:56:58.044Z,46.90
2018-10-09T19:59:26.759Z,45.33
2018-10-09T20:01:54.784Z,45.43
2018-10-09T20:04:23.107Z,49.97
2018-10-09T20:06:51.393Z,36.47
2018-10-09T20:09:19.643Z,47.63
2018-10-09T20:11:47.835Z,45.70
2018-10-09T20:14:16.011Z,46.47
2018-10-09T20:16:45.189Z,51.67
2018-10-09T20:19:13.448Z,50.80
2018-10-09T20:21:41.756Z,54.70
2018-10-09T20:24:10.859Z,49.20
2018-10-09T20:26:39.034Z,50.70
2018-10-09T20:29:07.197Z,56.23
2018-10-09T20:31:35.366Z,51.47
2018-10-09T20:34:03.512Z,50.03
2018-10-09T20:36:31.569Z,56.23
2018-10-09T20:38:59.948Z,47.97
2018-10-09T20:41:28.044Z,48.40
2018-10-09T20:43:56.195Z,53.20
2018-10-09T20:46:24.380Z,44.93
2018-10-09T20:48:52.479Z,50.07
2018-10-09T20:51:20.641Z,46.70
2018-10-09T20:53:48.834Z,43.00
2018-10-09T20:56:16.996Z,53.53
2018-10-09T20:58:45.052Z,46.37
2018-10-09T21:01:13.255Z,43.63
2018-10-09T21:03:41.457Z,46.17
2018-10-09T21:06:09.663Z,45.13
2018-10-09T21:08:37.673Z,52.00
2018-10-09T21:11:05.837Z,53.10
2018-10-09T21:13:34.022Z,46.53
2018-10-09T21:16:02.210Z,45.37
2018-10-09T21:18:30.328Z,64.50
2018-10-09T21:20:58.434Z,46.97
2018-10-09T21:26:09.212Z,40.40
2018-10-09T21:28:37.316Z,54.83
2018-10-09T21:31:05.600Z,45.07
2018-10-09T21:33:33.753Z,42.40
2018-10-09T21:36:01.913Z,43.53
2018-10-09T21:38:30.118Z,54.13
2018-10-09T21:40:58.259Z,44.97
2018-10-09T21:43:26.352Z,48.13
2018-10-09T21:45:54.523Z,41.30
2018-10-09T21:48:22.701Z,46.47
2018-10-09T21:50:50.941Z,43.63
2018-10-09T21:53:19.015Z,50.43
2018-10-09T21:55:47.072Z,48.80
2018-10-09T21:58:15.201Z,50.53
2018-10-09T22:00:48.839Z,51.87
2018-10-09T22:03:17.029Z,48.23
2018-10-09T22:05:45.139Z,46.60
2018-10-09T22:08:13.204Z,51.73
2018-10-09T22:10:41.377Z,52.03
2018-10-09T22:13:09.557Z,45.43
2018-10-09T22:15:37.708Z,51.90
2018-10-09T22:18:05.804Z,51.07
2018-10-09T22:20:33.997Z,51.00
2018-10-09T22:23:02.163Z,54.60
2018-10-09T22:25:30.308Z,64.23
2018-10-09T22:27:58.380Z,48.53
2018-10-09T22:30:26.429Z,65.40
2018-10-09T22:32:54.523Z,45.13
2018-10-09T22:35:22.613Z,56.13
2018-10-09T22:37:50.760Z,48.27
2018-10-09T22:40:18.876Z,47.70
2018-10-09T22:42:47.054Z,56.23
2018-10-09T22:45:15.383Z,52.87
2018-10-09T22:47:43.484Z,52.27
2018-10-09T22:50:11.873Z,49.20
2018-10-09T22:52:40.027Z,58.87
2018-10-09T22:55:08.907Z,50.13
2018-10-09T22:57:37.284Z,51.63
2018-10-09T23:00:05.388Z,56.93
2018-10-09T23:02:33.565Z,55.73
2018-10-09T23:05:01.722Z,49.00
2018-10-09T23:07:29.812Z,47.07
2018-10-09T23:09:58.053Z,50.83
2018-10-09T23:12:26.125Z,41.70
2018-10-09T23:14:54.257Z,51.13
2018-10-09T23:17:22.413Z,59.90
2018-10-09T23:19:50.529Z,47.97
2018-10-09T23:22:18.680Z,44.03
2018-10-09T23:24:46.817Z,48.37
2018-10-09T23:27:14.988Z,47.60
2018-10-09T23:29:43.056Z,42.63
2018-10-09T23:32:11.145Z,53.40
2018-10-09T23:34:39.295Z,50.27
2018-10-09T23:37:07.719Z,57.70
2018-10-09T23:39:35.851Z,54.53
2018-10-09T23:42:03.914Z,57.93
2018-10-09T23:44:31.990Z,54.80
2018-10-09T23:47:00.093Z,56.27
2018-10-09T23:49:28.237Z,52.13
2018-10-09T23:51:56.295Z,58.47
2018-10-09T23:54:24.503Z,57.23
2018-10-09T23:56:52.785Z,43.50
2018-10-09T23:59:20.916Z,47.13
